Time;durP1;ratioP1;P1;durP2;ratioP2;P2;SDS_P1;SDS_P2;PMS_P1;PMS_P2;Temp;Humidity;BMP_temperature;BMP_pressure;BME280_temperature;BME280_humidity;BME280_pressure;Samples;Min_cycle;Max_cycle;Signal;HPM_P1;HPM_P2
2022/10/10 00:01:14;;;;;;;3.43;2.33;;;8.80;99.90;;;;;;5002094;28;20242;-86
2022/10/10 00:03:40;;;;;;;5.53;3.00;;;8.80;99.90;;;;;;4987044;28;20314;-85
2022/10/10 00:06:06;;;;;;;6.17;2.47;;;8.80;99.90;;;;;;4987490;28;20220;-86
2022/10/10 00:08:32;;;;;;;3.60;3.00;;;8.80;99.90;;;;;;4993934;28;20690;-86
2022/10/10 00:10:57;;;;;;;2.40;1.70;;;8.80;99.90;;;;;;4985480;28;20230;-86
2022/10/10 00:13:23;;;;;;;5.97;2.43;;;8.80;99.90;;;;;;5002425;28;20210;-86
2022/10/10 00:15:49;;;;;;;3.03;2.67;;;8.80;99.90;;;;;;5018666;28;20302;-86
2022/10/10 00:18:15;;;;;;;2.53;2.10;;;8.80;99.90;;;;;;4986223;28;20216;-86
2022/10/10 00:20:41;;;;;;;9.03;2.50;;;8.80;99.90;;;;;;4986896;28;20223;-85
2022/10/10 00:23:07;;;;;;;5.07;2.60;;;8.80;99.90;;;;;;4985828;28;20192;-85
2022/10/10 00:25:33;;;;;;;4.87;2.20;;;8.80;99.90;;;;;;5002550;28;20677;-86
2022/10/10 00:28:03;;;;;;;2.27;2.07;;;8.80;99.90;;;;;;4986029;28;20236;-85
2022/10/10 00:30:29;;;;;;;3.60;2.57;;;8.80;99.90;;;;;;4985461;28;20224;-86
2022/10/10 00:32:58;;;;;;;3.13;2.53;;;8.80;99.90;;;;;;4969521;28;20270;-86
2022/10/10 00:35:23;;;;;;;3.20;2.70;;;8.70;99.90;;;;;;4993071;28;20220;-86
2022/10/10 00:37:49;;;;;;;2.93;2.73;;;8.80;99.90;;;;;;4970659;28;20608;-85
2022/10/10 00:40:15;;;;;;;2.30;2.10;;;8.70;99.90;;;;;;5018021;28;21171;-85
2022/10/10 00:42:41;;;;;;;3.43;2.50;;;8.80;99.90;;;;;;5001901;28;20457;-86
2022/10/10 00:45:24;;;;;;;4.00;1.93;;;8.80;99.90;;;;;;4985526;28;20230;-84
2022/10/10 00:47:54;;;;;;;2.53;2.23;;;8.80;99.90;;;;;;4985321;28;20223;-85
2022/10/10 00:50:21;;;;;;;2.33;2.13;;;8.80;99.90;;;;;;4993483;28;20220;-87
2022/10/10 00:52:47;;;;;;;1.87;1.70;;;8.80;99.90;;;;;;4985836;28;20243;-87
2022/10/10 00:55:14;;;;;;;3.10;2.73;;;8.80;99.90;;;;;;4985517;28;20330;-85
2022/10/10 00:57:41;;;;;;;3.30;2.43;;;8.90;99.90;;;;;;4984584;28;20251;-85
2022/10/10 01:00:07;;;;;;;4.00;2.97;;;8.80;99.90;;;;;;4984301;28;20251;-86
2022/10/10 01:02:33;;;;;;;2.37;1.80;;;8.80;99.90;;;;;;4986196;28;20255;-83
2022/10/10 01:04:59;;;;;;;2.00;1.73;;;8.90;99.90;;;;;;4977687;28;20784;-86
2022/10/10 01:07:28;;;;;;;3.50;2.40;;;8.90;99.90;;;;;;5017684;28;20538;-85
2022/10/10 01:09:57;;;;;;;3.23;2.57;;;8.90;99.90;;;;;;4984830;28;20224;-87
2022/10/10 01:12:39;;;;;;;3.33;3.03;;;8.90;99.90;;;;;;4985120;28;20620;-85
2022/10/10 01:15:20;;;;;;;4.80;2.93;;;8.90;99.90;;;;;;4986218;28;20211;-87
2022/10/10 01:17:46;;;;;;;4.20;2.77;;;8.90;99.90;;;;;;4991332;28;20587;-87
2022/10/10 01:20:26;;;;;;;2.47;2.23;;;8.90;99.90;;;;;;4985005;28;21855;-85
2022/10/10 01:23:26;;;;;;;3.10;2.80;;;8.90;99.90;;;;;;4986368;28;20196;-85
2022/10/10 01:26:00;;;;;;;3.70;2.87;;;8.90;99.90;;;;;;5027542;28;20225;-85
2022/10/10 01:29:12;;;;;;;5.23;2.80;;;8.90;99.90;;;;;;5003354;28;20186;-87
2022/10/10 01:31:41;;;;;;;3.33;3.03;;;8.80;99.90;;;;;;4986142;28;20246;-85
2022/10/10 01:34:16;;;;;;;3.77;3.23;;;8.90;99.90;;;;;;5022558;28;20221;-85
2022/10/10 01:37:15;;;;;;;4.20;2.90;;;8.90;99.90;;;;;;4994722;28;20215;-85
2022/10/10 01:40:04;;;;;;;2.73;2.53;;;8.80;99.90;;;;;;4996155;28;20228;-87
2022/10/10 01:42:46;;;;;;;4.33;2.50;;;8.80;99.90;;;;;;4989198;28;20222;-86
2022/10/10 01:45:12;;;;;;;3.53;3.03;;;8.80;99.90;;;;;;5021898;28;20216;-85
2022/10/10 01:47:38;;;;;;;5.43;2.77;;;8.80;99.90;;;;;;4988501;28;20693;-85
2022/10/10 01:50:11;;;;;;;3.40;1.87;;;8.80;99.90;;;;;;5020702;28;20188;-86
2022/10/10 01:52:48;;;;;;;5.20;3.00;;;8.70;99.90;;;;;;4989946;28;20242;-86
2022/10/10 01:55:22;;;;;;;1.90;1.80;;;8.80;99.90;;;;;;4998177;28;20238;-86
2022/10/10 01:58:10;;;;;;;7.00;3.07;;;8.70;99.90;;;;;;5004012;28;20339;-85
2022/10/10 02:00:53;;;;;;;3.10;2.83;;;8.80;99.90;;;;;;5003801;28;20669;-86
2022/10/10 02:03:28;;;;;;;13.27;2.33;;;8.80;99.90;;;;;;4989229;28;20232;-86
2022/10/10 02:06:20;;;;;;;8.07;3.07;;;8.80;99.90;;;;;;4989447;28;20668;-85
2022/10/10 02:09:01;;;;;;;4.10;2.80;;;8.80;99.90;;;;;;4983056;28;20665;-85
2022/10/10 02:11:31;;;;;;;12.10;5.13;;;8.80;99.90;;;;;;4988450;28;20315;-85
2022/10/10 02:14:17;;;;;;;2.07;1.97;;;8.80;99.90;;;;;;4987648;28;20186;-86
2022/10/10 02:16:46;;;;;;;1.63;1.53;;;8.80;99.90;;;;;;4989263;28;20218;-86
2022/10/10 02:19:16;;;;;;;7.83;2.33;;;8.80;99.90;;;;;;4988031;28;20282;-86
2022/10/10 02:21:44;;;;;;;3.00;2.63;;;8.80;99.90;;;;;;4987965;28;20218;-85
2022/10/10 02:24:11;;;;;;;4.57;2.63;;;8.80;99.90;;;;;;4995090;28;20246;-85
2022/10/10 02:26:38;;;;;;;2.63;2.43;;;8.80;99.90;;;;;;4988532;28;20269;-86
2022/10/10 02:29:15;;;;;;;6.20;3.30;;;8.80;99.90;;;;;;4988747;28;20196;-86
2022/10/10 02:32:11;;;;;;;4.70;3.47;;;8.80;99.90;;;;;;4989556;28;20196;-86
2022/10/10 02:34:40;;;;;;;3.63;3.33;;;8.80;99.90;;;;;;4988395;28;20665;-86
2022/10/10 02:37:11;;;;;;;4.03;2.70;;;8.80;99.90;;;;;;4987855;28;20231;-86
2022/10/10 02:39:44;;;;;;;5.83;4.43;;;8.80;99.90;;;;;;4988712;28;20219;-86
2022/10/10 02:42:13;;;;;;;4.17;3.77;;;8.80;99.90;;;;;;4988654;28;20258;-86
2022/10/10 02:44:40;;;;;;;3.97;2.60;;;8.90;99.90;;;;;;4987372;28;21042;-86
2022/10/10 02:47:06;;;;;;;4.43;2.00;;;8.90;99.90;;;;;;4988249;28;20191;-86
2022/10/10 02:49:33;;;;;;;2.70;2.50;;;8.80;99.90;;;;;;5003085;28;20187;-86
2022/10/10 02:52:00;;;;;;;3.37;3.07;;;8.80;99.90;;;;;;4988156;28;20228;-86
2022/10/10 02:54:26;;;;;;;3.97;2.77;;;8.80;99.90;;;;;;4987805;28;20216;-86
2022/10/10 02:56:52;;;;;;;3.30;2.87;;;8.80;99.90;;;;;;4988110;28;20219;-86
2022/10/10 02:59:18;;;;;;;4.30;3.17;;;8.80;99.90;;;;;;4988256;28;20219;-86
2022/10/10 03:01:44;;;;;;;2.37;1.90;;;8.80;99.90;;;;;;4988633;28;20251;-86
2022/10/10 03:04:10;;;;;;;3.37;3.03;;;8.80;99.90;;;;;;4987122;28;20224;-85
2022/10/10 03:06:36;;;;;;;3.03;2.73;;;8.80;99.90;;;;;;4986524;28;20248;-86
2022/10/10 03:09:03;;;;;;;3.97;3.30;;;8.80;99.90;;;;;;4986428;28;21181;-86
2022/10/10 03:11:29;;;;;;;3.27;2.87;;;8.80;99.90;;;;;;4986762;28;20224;-86
2022/10/10 03:13:54;;;;;;;2.50;2.07;;;8.80;99.90;;;;;;4987843;28;20935;-86
2022/10/10 03:16:20;;;;;;;3.10;2.80;;;8.80;99.90;;;;;;4980307;28;20195;-86
2022/10/10 03:18:46;;;;;;;8.70;3.73;;;8.80;99.90;;;;;;4986478;28;20298;-86
2022/10/10 03:21:12;;;;;;;3.80;2.63;;;8.80;99.90;;;;;;4987870;28;20235;-86
2022/10/10 03:23:38;;;;;;;6.80;2.43;;;8.80;99.90;;;;;;4987688;28;20743;-86
2022/10/10 03:26:04;;;;;;;3.13;2.83;;;8.70;99.90;;;;;;4988121;28;20596;-86
2022/10/10 03:28:30;;;;;;;3.20;2.90;;;8.70;99.90;;;;;;5003725;28;20664;-86
2022/10/10 03:30:55;;;;;;;3.20;2.90;;;8.70;99.90;;;;;;4988013;28;20228;-86
2022/10/10 03:33:22;;;;;;;4.37;3.27;;;8.70;99.90;;;;;;5018147;28;20247;-86
2022/10/10 03:35:48;;;;;;;4.20;3.60;;;8.60;99.90;;;;;;4987307;28;20527;-86
2022/10/10 03:38:14;;;;;;;5.37;4.00;;;8.60;99.90;;;;;;4987417;28;20216;-86
2022/10/10 03:40:42;;;;;;;6.23;2.57;;;8.60;99.90;;;;;;5003288;28;20294;-86
2022/10/10 03:43:08;;;;;;;3.43;3.13;;;8.50;99.90;;;;;;5018330;28;20216;-86
2022/10/10 03:45:34;;;;;;;4.13;3.30;;;8.50;99.90;;;;;;4986863;28;20315;-86
2022/10/10 03:48:00;;;;;;;4.80;2.27;;;8.50;99.90;;;;;;4986775;28;20311;-86
2022/10/10 03:50:26;;;;;;;3.97;2.53;;;8.40;99.90;;;;;;4986248;28;20673;-86
2022/10/10 03:52:51;;;;;;;4.10;3.80;;;8.40;99.90;;;;;;4987513;28;20224;-86
2022/10/10 03:55:17;;;;;;;4.40;2.63;;;8.40;99.90;;;;;;4970360;28;20216;-86
2022/10/10 03:57:43;;;;;;;7.53;3.07;;;8.40;99.90;;;;;;4986201;28;20234;-86
2022/10/10 04:00:09;;;;;;;2.23;2.03;;;8.40;99.90;;;;;;4970364;28;20323;-86
2022/10/10 04:02:35;;;;;;;3.37;2.17;;;8.40;99.90;;;;;;5002066;28;20231;-86
2022/10/10 04:05:02;;;;;;;3.27;2.40;;;8.40;99.90;;;;;;4969567;28;20192;-85
2022/10/10 04:07:28;;;;;;;2.77;2.37;;;8.30;99.90;;;;;;4986009;28;20211;-86
2022/10/10 04:09:54;;;;;;;4.83;3.83;;;8.30;99.90;;;;;;4987309;28;20969;-86
2022/10/10 04:12:20;;;;;;;6.33;4.57;;;8.30;99.90;;;;;;4985969;28;20235;-86
2022/10/10 04:14:45;;;;;;;4.47;2.50;;;8.30;99.90;;;;;;4985370;28;20278;-86
2022/10/10 04:17:11;;;;;;;5.00;3.00;;;8.30;99.90;;;;;;5002513;28;20184;-86
2022/10/10 04:19:37;;;;;;;4.10;2.37;;;8.30;99.90;;;;;;4969973;28;20204;-85
2022/10/10 04:22:03;;;;;;;7.60;3.20;;;8.30;99.90;;;;;;4969306;28;20224;-86
2022/10/10 04:24:29;;;;;;;3.67;2.60;;;8.30;99.90;;;;;;4985445;28;20216;-86
2022/10/10 04:26:54;;;;;;;4.60;3.33;;;8.30;99.90;;;;;;4969549;28;20219;-86
2022/10/10 04:29:20;;;;;;;3.63;3.33;;;8.30;99.90;;;;;;4985195;28;20220;-85
2022/10/10 04:31:46;;;;;;;5.23;2.73;;;8.30;99.90;;;;;;4987177;28;20270;-86
2022/10/10 04:34:12;;;;;;;3.20;2.20;;;8.20;99.90;;;;;;4986144;28;20223;-85
2022/10/10 04:36:37;;;;;;;2.83;2.60;;;8.30;99.90;;;;;;4985383;28;20255;-86
2022/10/10 04:39:03;;;;;;;4.73;3.03;;;8.30;99.90;;;;;;5000965;28;20554;-87
2022/10/10 04:41:29;;;;;;;4.27;3.10;;;8.30;99.90;;;;;;4986531;28;20229;-86
2022/10/10 04:43:55;;;;;;;3.53;2.10;;;8.20;99.90;;;;;;4985466;28;20673;-86
2022/10/10 04:46:20;;;;;;;2.90;2.33;;;8.20;99.90;;;;;;4987121;28;21084;-85
2022/10/10 04:48:46;;;;;;;3.07;2.77;;;8.30;99.90;;;;;;5001307;28;21127;-86
2022/10/10 04:51:12;;;;;;;5.00;3.00;;;8.20;99.90;;;;;;4985086;28;20432;-86
2022/10/10 04:53:38;;;;;;;2.80;2.27;;;8.30;99.90;;;;;;4985180;28;20732;-86
2022/10/10 04:56:04;;;;;;;3.73;3.30;;;8.30;99.90;;;;;;4984836;28;20691;-85
2022/10/10 04:58:30;;;;;;;5.73;3.70;;;8.30;99.90;;;;;;4984982;28;20188;-83
2022/10/10 05:00:56;;;;;;;3.20;2.83;;;8.20;99.90;;;;;;4984855;28;20230;-86
2022/10/10 05:03:22;;;;;;;3.57;2.77;;;8.20;99.90;;;;;;5006024;28;20233;-87
2022/10/10 05:05:49;;;;;;;3.30;2.90;;;8.20;99.90;;;;;;5036385;28;20575;-89
2022/10/10 05:08:15;;;;;;;4.00;2.53;;;8.20;99.90;;;;;;4990578;28;20250;-86
2022/10/10 05:10:41;;;;;;;2.23;2.03;;;8.20;99.90;;;;;;5005563;28;20306;-87
2022/10/10 05:13:10;;;;;;;2.03;1.80;;;8.20;99.90;;;;;;5004529;28;20309;-85
2022/10/10 05:15:37;;;;;;;2.57;2.33;;;8.20;99.90;;;;;;5020380;28;20207;-88
2022/10/10 05:18:03;;;;;;;4.60;2.80;;;8.20;99.90;;;;;;5005326;28;20258;-87
2022/10/10 05:20:30;;;;;;;3.23;2.77;;;8.20;99.90;;;;;;5003692;28;20223;-87
2022/10/10 05:22:56;;;;;;;3.50;3.17;;;8.10;99.90;;;;;;5037190;28;20214;-88
2022/10/10 05:25:22;;;;;;;2.87;2.67;;;8.10;99.90;;;;;;5037488;28;20254;-86
2022/10/10 05:27:47;;;;;;;4.30;3.30;;;8.10;99.90;;;;;;4988534;28;20732;-87
2022/10/10 05:30:14;;;;;;;3.37;2.73;;;8.20;99.90;;;;;;4988425;28;20227;-86
2022/10/10 05:32:40;;;;;;;4.40;3.97;;;8.10;99.90;;;;;;5004185;28;20231;-89
2022/10/10 05:35:06;;;;;;;2.97;2.77;;;8.20;99.90;;;;;;4999049;28;20193;-87
2022/10/10 05:37:32;;;;;;;5.27;2.67;;;8.10;99.90;;;;;;5004583;28;20188;-86
2022/10/10 05:39:58;;;;;;;3.17;2.87;;;8.10;99.90;;;;;;5003791;28;20226;-88
2022/10/10 05:42:24;;;;;;;3.53;2.30;;;8.10;99.90;;;;;;5003718;28;20219;-84
2022/10/10 05:44:50;;;;;;;8.40;3.80;;;8.10;99.90;;;;;;5013648;28;20270;-84
2022/10/10 05:47:16;;;;;;;2.70;2.50;;;8.10;99.90;;;;;;5002943;28;20575;-84
2022/10/10 05:49:42;;;;;;;3.70;3.30;;;8.10;99.90;;;;;;5003698;28;20611;-85
2022/10/10 05:52:08;;;;;;;3.37;2.77;;;8.10;99.90;;;;;;5004638;28;20227;-82
2022/10/10 05:54:34;;;;;;;5.30;3.23;;;8.10;99.90;;;;;;5003320;28;20257;-84
2022/10/10 05:57:00;;;;;;;3.13;2.87;;;8.10;99.90;;;;;;5003620;28;20245;-84
2022/10/10 05:59:28;;;;;;;4.17;3.43;;;8.00;99.90;;;;;;5004236;28;20223;-85
2022/10/10 06:01:54;;;;;;;5.33;3.17;;;8.10;99.90;;;;;;5036735;28;20452;-83
2022/10/10 06:04:21;;;;;;;3.87;3.10;;;8.10;99.90;;;;;;5019854;28;20195;-84
2022/10/10 06:06:47;;;;;;;3.83;2.97;;;8.10;99.90;;;;;;5004894;28;20215;-84
2022/10/10 06:09:12;;;;;;;5.93;3.10;;;8.20;99.90;;;;;;5004296;28;20217;-86
2022/10/10 06:11:38;;;;;;;5.23;4.20;;;8.30;99.90;;;;;;5036602;28;20228;-85
2022/10/10 06:14:04;;;;;;;5.47;3.67;;;8.40;99.90;;;;;;5003540;28;20193;-83
2022/10/10 06:16:30;;;;;;;4.37;2.90;;;8.50;99.90;;;;;;5010179;28;20198;-85
2022/10/10 06:18:56;;;;;;;4.00;3.47;;;8.70;99.90;;;;;;4994786;28;20571;-87
2022/10/10 06:21:22;;;;;;;2.97;2.43;;;9.00;99.90;;;;;;5007376;28;20552;-85
2022/10/10 06:23:48;;;;;;;6.37;3.03;;;9.20;99.90;;;;;;5015416;28;20215;-85
2022/10/10 06:26:14;;;;;;;3.67;3.13;;;9.50;99.90;;;;;;5007617;28;20222;-87
2022/10/10 06:28:40;;;;;;;6.57;3.80;;;9.60;99.90;;;;;;5008372;28;20237;-85
2022/10/10 06:31:07;;;;;;;2.33;2.17;;;9.80;99.90;;;;;;5007246;28;20234;-85
2022/10/10 06:33:36;;;;;;;3.87;3.10;;;10.30;99.90;;;;;;5006543;28;20302;-87
2022/10/10 06:36:05;;;;;;;8.80;3.73;;;10.60;99.90;;;;;;5038745;28;20230;-84
2022/10/10 06:38:30;;;;;;;4.27;3.10;;;10.80;99.90;;;;;;5006694;28;20293;-87
2022/10/10 06:41:01;;;;;;;5.53;3.17;;;10.60;99.90;;;;;;4990216;28;20221;-85
2022/10/10 06:43:26;;;;;;;7.67;3.27;;;10.50;99.90;;;;;;5006708;28;20188;-84
2022/10/10 06:45:52;;;;;;;3.30;2.97;;;10.40;99.90;;;;;;5039473;28;20235;-84
2022/10/10 06:48:18;;;;;;;3.23;2.97;;;10.40;99.90;;;;;;5007280;28;20219;-84
2022/10/10 06:50:58;;;;;;;4.27;2.50;;;10.50;99.90;;;;;;5006753;28;20227;-85
2022/10/10 06:53:24;;;;;;;2.27;2.03;;;10.60;99.90;;;;;;5039780;28;20668;-87
2022/10/10 06:55:53;;;;;;;3.27;2.73;;;10.70;99.90;;;;;;5007691;28;20200;-86
2022/10/10 06:58:18;;;;;;;4.87;3.20;;;10.70;99.90;;;;;;4987947;28;20961;-86
2022/10/10 07:00:56;;;;;;;5.87;3.43;;;10.90;99.90;;;;;;4986221;28;20236;-86
2022/10/10 07:03:22;;;;;;;6.80;3.47;;;11.00;99.90;;;;;;4986501;28;20303;-86
2022/10/10 07:05:50;;;;;;;3.27;3.00;;;11.00;99.90;;;;;;5002236;28;21029;-85
2022/10/10 07:08:15;;;;;;;3.47;3.07;;;10.90;99.90;;;;;;4970687;28;20224;-86
2022/10/10 07:10:42;;;;;;;6.07;3.00;;;10.90;99.90;;;;;;5002093;28;20187;-86
2022/10/10 07:13:07;;;;;;;4.57;3.30;;;10.90;99.90;;;;;;5002781;28;20289;-86
2022/10/10 07:15:33;;;;;;;4.80;3.40;;;10.90;99.90;;;;;;4987941;28;20307;-86
2022/10/10 07:17:59;;;;;;;5.00;3.77;;;11.10;99.90;;;;;;5002218;28;20642;-85
2022/10/10 07:20:26;;;;;;;6.80;4.03;;;11.30;99.90;;;;;;4986778;28;20577;-86
2022/10/10 07:22:52;;;;;;;7.77;3.53;;;11.60;99.90;;;;;;4988464;28;20199;-86
2022/10/10 07:25:18;;;;;;;5.17;3.63;;;11.90;99.90;;;;;;4986991;28;20227;-84
2022/10/10 07:27:44;;;;;;;5.70;3.60;;;12.30;99.90;;;;;;4985629;28;20219;-86
2022/10/10 07:30:10;;;;;;;9.03;3.43;;;13.50;99.90;;;;;;4994504;28;20315;-84
2022/10/10 07:32:36;;;;;;;5.33;4.20;;;15.00;99.90;;;;;;4985137;28;20231;-85
2022/10/10 07:35:02;;;;;;;7.53;3.50;;;16.60;99.90;;;;;;4970216;28;20274;-85
2022/10/10 07:37:28;;;;;;;10.00;3.60;;;17.40;99.90;;;;;;4986399;28;20192;-84
2022/10/10 07:39:54;;;;;;;7.23;3.43;;;18.00;99.90;;;;;;5018070;28;20424;-85
2022/10/10 07:42:20;;;;;;;4.93;2.20;;;18.50;99.90;;;;;;4986013;28;20520;-85
2022/10/10 07:44:48;;;;;;;3.80;3.40;;;18.20;99.90;;;;;;5001791;28;20818;-86
2022/10/10 07:47:14;;;;;;;2.53;2.33;;;17.70;99.90;;;;;;4986137;28;20564;-86
2022/10/10 07:49:40;;;;;;;3.63;3.27;;;17.00;99.90;;;;;;4986725;28;20187;-86
2022/10/10 07:52:05;;;;;;;7.50;4.00;;;16.20;99.90;;;;;;4984387;28;20243;-87
2022/10/10 07:54:32;;;;;;;5.07;4.10;;;15.30;99.90;;;;;;4985972;28;20219;-85
2022/10/10 07:56:57;;;;;;;4.33;3.03;;;14.70;99.90;;;;;;4984625;28;20255;-85
2022/10/10 07:59:24;;;;;;;5.70;3.03;;;14.40;99.90;;;;;;4987050;28;20376;-83
2022/10/10 08:01:50;;;;;;;6.30;3.13;;;14.20;99.90;;;;;;5001082;28;20244;-84
2022/10/10 08:04:16;;;;;;;7.87;3.63;;;14.20;99.90;;;;;;4969071;28;20235;-85
2022/10/10 08:06:43;;;;;;;3.90;3.23;;;14.10;99.90;;;;;;4986162;28;20582;-85
2022/10/10 08:09:09;;;;;;;5.13;3.10;;;14.00;99.90;;;;;;4980028;28;20322;-84
2022/10/10 08:11:35;;;;;;;3.93;3.50;;;13.80;99.90;;;;;;5002897;28;20281;-85
2022/10/10 08:14:00;;;;;;;3.00;2.70;;;13.70;99.90;;;;;;5004553;28;20183;-84
2022/10/10 08:16:27;;;;;;;5.73;3.60;;;13.50;99.90;;;;;;4994712;28;20419;-84
2022/10/10 08:18:52;;;;;;;6.83;3.40;;;13.20;99.90;;;;;;5004254;28;20219;-86
2022/10/10 08:21:18;;;;;;;4.47;3.67;;;13.20;99.90;;;;;;5004331;28;20755;-84
2022/10/10 08:23:45;;;;;;;7.93;4.23;;;13.10;99.90;;;;;;5005182;28;20246;-84
2022/10/10 08:26:12;;;;;;;8.50;4.00;;;13.20;99.90;;;;;;5036948;28;20195;-84
2022/10/10 08:28:39;;;;;;;11.87;3.00;;;13.20;99.90;;;;;;5005060;28;20175;-84
2022/10/10 08:31:10;;;;;;;5.00;3.13;;;13.20;99.90;;;;;;5004444;28;20235;-83
2022/10/10 08:33:36;;;;;;;13.43;4.77;;;13.60;99.90;;;;;;5004461;28;20229;-85
2022/10/10 08:36:12;;;;;;;6.17;4.20;;;13.80;99.90;;;;;;5004698;28;20223;-83
2022/10/10 08:38:37;;;;;;;5.60;3.67;;;14.00;99.90;;;;;;5005488;28;20660;-83
2022/10/10 08:41:19;;;;;;;6.37;4.03;;;14.20;99.90;;;;;;5004433;28;20202;-83
2022/10/10 08:43:53;;;;;;;6.47;4.03;;;14.40;99.90;;;;;;5003018;28;20176;-85
2022/10/10 08:46:39;;;;;;;5.60;3.70;;;14.30;99.90;;;;;;4984302;28;20298;-84
2022/10/10 08:50:06;;;;;;;6.07;3.73;;;14.10;99.90;;;;;;4985683;28;20232;-83
2022/10/10 08:52:44;;;;;;;5.80;3.90;;;14.20;99.90;;;;;;4954967;28;20348;-85
2022/10/10 08:55:21;;;;;;;8.70;4.33;;;14.20;99.90;;;;;;4979086;28;20271;-83
2022/10/10 08:58:19;;;;;;;3.60;2.83;;;14.40;99.90;;;;;;4980652;28;20307;-83
2022/10/10 09:00:53;;;;;;;4.23;3.10;;;14.60;99.90;;;;;;4999513;28;20235;-84
2022/10/10 09:03:36;;;;;;;2.40;2.10;;;14.70;99.90;;;;;;5004626;28;20280;-84
2022/10/10 09:06:16;;;;;;;6.50;3.90;;;14.60;99.90;;;;;;5010722;28;20265;-87
2022/10/10 09:09:08;;;;;;;7.13;3.83;;;14.70;99.90;;;;;;5003772;28;20885;-84
2022/10/10 09:11:58;;;;;;;5.57;3.33;;;14.90;99.90;;;;;;5007777;28;20239;-84
2022/10/10 09:14:47;;;;;;;3.57;3.20;;;14.80;99.90;;;;;;5003197;28;20223;-84
2022/10/10 09:17:38;;;;;;;8.33;3.80;;;15.00;99.90;;;;;;5003347;28;20276;-84
2022/10/10 09:20:09;;;;;;;5.97;3.37;;;15.30;99.90;;;;;;5009842;28;20273;-83
2022/10/10 09:22:54;;;;;;;5.47;3.70;;;15.40;99.90;;;;;;5003650;28;20260;-84
2022/10/10 09:25:26;;;;;;;5.73;4.33;;;15.70;99.90;;;;;;5003823;28;20207;-84
2022/10/10 09:28:11;;;;;;;7.43;4.60;;;15.60;99.90;;;;;;5009307;28;20668;-84
2022/10/10 09:30:44;;;;;;;5.20;4.23;;;16.00;99.90;;;;;;5003354;28;20247;-83
2022/10/10 09:33:18;;;;;;;8.73;4.67;;;16.10;99.90;;;;;;5000836;28;20703;-83
2022/10/10 09:35:47;;;;;;;4.50;4.10;;;16.00;99.90;;;;;;5003953;28;20226;-85
2022/10/10 09:38:45;;;;;;;6.23;4.20;;;16.00;99.90;;;;;;5022044;28;20281;-84
2022/10/10 09:41:16;;;;;;;5.53;4.20;;;16.30;99.90;;;;;;5002295;28;20175;-84
2022/10/10 09:43:42;;;;;;;5.97;4.20;;;16.20;99.90;;;;;;5004211;28;20195;-85
2022/10/10 09:46:08;;;;;;;8.97;4.13;;;16.10;99.90;;;;;;5001429;28;20215;-84
2022/10/10 09:48:38;;;;;;;7.20;4.70;;;16.00;99.90;;;;;;4986311;28;20219;-84
2022/10/10 09:51:07;;;;;;;9.07;4.53;;;16.10;99.90;;;;;;5034549;28;20218;-85
2022/10/10 09:53:33;;;;;;;11.53;3.77;;;16.00;99.90;;;;;;5002846;28;20207;-84
2022/10/10 09:55:59;;;;;;;5.87;3.63;;;16.30;99.90;;;;;;5013761;28;20242;-84
2022/10/10 09:58:39;;;;;;;4.33;3.10;;;16.10;99.90;;;;;;5011528;28;20390;-84
2022/10/10 10:01:19;;;;;;;7.83;3.67;;;15.90;99.90;;;;;;5006205;28;20223;-85
2022/10/10 10:04:16;;;;;;;5.87;3.97;;;15.80;99.90;;;;;;5006778;28;20231;-86
2022/10/10 10:06:48;;;;;;;4.80;3.73;;;15.70;99.90;;;;;;5010439;28;20685;-86
2022/10/10 10:09:21;;;;;;;5.90;5.13;;;15.70;99.90;;;;;;5007000;28;20302;-86
2022/10/10 10:11:54;;;;;;;7.57;4.93;;;15.80;99.90;;;;;;5006708;28;20227;-87
2022/10/10 10:14:27;;;;;;;9.47;3.97;;;15.80;99.90;;;;;;5006473;28;20207;-87
2022/10/10 10:17:03;;;;;;;6.93;5.30;;;15.80;99.90;;;;;;5006329;28;20765;-85
2022/10/10 10:19:34;;;;;;;5.83;4.20;;;15.90;99.90;;;;;;5007920;28;20187;-85
2022/10/10 10:22:00;;;;;;;8.23;4.37;;;16.00;99.90;;;;;;5006291;28;20223;-86
2022/10/10 10:24:35;;;;;;;5.70;4.20;;;15.90;99.90;;;;;;4989782;28;20265;-86
2022/10/10 10:27:13;;;;;;;6.13;4.80;;;15.90;99.90;;;;;;5016977;28;20210;-86
2022/10/10 10:30:03;;;;;;;15.23;4.33;;;15.90;99.90;;;;;;5038108;28;20230;-87
2022/10/10 10:32:32;;;;;;;10.57;3.30;;;16.00;99.90;;;;;;5005993;28;20673;-84
2022/10/10 10:35:06;;;;;;;9.07;3.97;;;15.80;99.90;;;;;;5021633;28;20192;-85
2022/10/10 10:37:38;;;;;;;6.43;4.43;;;15.70;99.90;;;;;;5022401;28;20178;-85
2022/10/10 10:40:33;;;;;;;7.27;3.73;;;15.60;99.90;;;;;;5004524;28;20231;-84
2022/10/10 10:43:33;;;;;;;7.13;4.13;;;15.40;99.90;;;;;;5004592;28;20265;-86
2022/10/10 10:46:19;;;;;;;5.20;3.57;;;15.40;99.90;;;;;;4999249;28;20226;-86
2022/10/10 10:49:02;;;;;;;8.83;5.33;;;15.30;99.90;;;;;;5004800;28;20226;-85
2022/10/10 10:51:57;;;;;;;6.43;4.43;;;15.30;99.90;;;;;;5004826;28;20719;-86
2022/10/10 10:54:52;;;;;;;9.20;5.00;;;15.30;99.90;;;;;;5004709;28;20487;-87
2022/10/10 10:57:43;;;;;;;9.50;4.97;;;15.30;99.90;;;;;;4994974;28;20223;-82
2022/10/10 11:00:11;;;;;;;6.37;4.50;;;15.30;99.90;;;;;;5012396;28;20672;-88
2022/10/10 11:03:03;;;;;;;11.90;5.37;;;15.30;99.90;;;;;;5011579;28;20230;-85
2022/10/10 11:05:54;;;;;;;5.13;4.50;;;15.40;99.90;;;;;;5006521;28;20219;-87
2022/10/10 11:08:46;;;;;;;5.17;4.40;;;15.40;99.90;;;;;;5003638;28;20239;-86
2022/10/10 11:11:29;;;;;;;6.80;4.60;;;15.30;99.90;;;;;;5004014;28;20211;-87
2022/10/10 11:14:11;;;;;;;7.50;4.90;;;15.30;99.90;;;;;;5004092;28;20625;-88
2022/10/10 11:17:02;;;;;;;7.63;3.77;;;15.40;99.90;;;;;;5004536;28;20176;-87
2022/10/10 11:19:38;;;;;;;4.57;4.10;;;15.50;99.90;;;;;;5036630;28;20337;-86
2022/10/10 11:22:38;;;;;;;10.90;4.57;;;15.80;99.90;;;;;;5035412;28;20227;-85
2022/10/10 11:25:22;;;;;;;11.97;3.20;;;16.00;99.90;;;;;;5004805;28;20981;-84
2022/10/10 11:27:56;;;;;;;6.70;4.10;;;15.90;99.90;;;;;;5003503;28;20265;-86
2022/10/10 11:30:29;;;;;;;12.43;4.30;;;15.90;99.90;;;;;;5004376;28;20246;-87
2022/10/10 11:33:15;;;;;;;8.70;3.80;;;15.90;99.90;;;;;;5023527;28;20233;-86
2022/10/10 11:35:58;;;;;;;6.70;3.70;;;16.10;99.90;;;;;;5014042;28;20306;-88
2022/10/10 11:38:39;;;;;;;12.10;4.27;;;16.10;99.90;;;;;;5004060;28;20298;-87
2022/10/10 11:41:14;;;;;;;6.07;4.13;;;16.20;99.90;;;;;;5004342;28;20283;-86
2022/10/10 11:43:52;;;;;;;5.73;3.30;;;16.10;99.90;;;;;;5003932;28;20269;-84
2022/10/10 11:46:26;;;;;;;5.57;3.20;;;16.00;99.90;;;;;;5004425;28;20235;-83
2022/10/10 11:49:12;;;;;;;4.10;2.83;;;15.90;99.90;;;;;;4994890;28;20298;-86
2022/10/10 11:52:20;;;;;;;9.40;4.13;;;15.70;99.90;;;;;;5011734;28;20238;-85
2022/10/10 11:55:02;;;;;;;8.03;3.80;;;15.60;99.90;;;;;;5007422;28;20235;-87
2022/10/10 11:57:41;;;;;;;3.73;1.67;;;15.40;99.90;;;;;;5003472;28;20238;-86
2022/10/10 12:00:13;;;;;;;2.27;2.07;;;15.20;99.90;;;;;;5003282;28;20219;-85
2022/10/10 12:02:39;;;;;;;1.93;1.73;;;15.00;99.90;;;;;;5002903;28;20631;-86
2022/10/10 12:05:18;;;;;;;4.40;2.00;;;14.90;99.90;;;;;;5021167;28;20276;-86
2022/10/10 12:07:53;;;;;;;2.17;1.10;;;14.90;99.90;;;;;;5002958;28;20232;-86
2022/10/10 12:10:45;;;;;;;4.53;1.70;;;14.90;99.90;;;;;;5003212;28;20211;-85
2022/10/10 12:13:29;;;;;;;9.03;2.63;;;14.90;99.90;;;;;;5002075;28;20261;-87
2022/10/10 12:15:57;;;;;;;2.97;2.33;;;15.00;99.90;;;;;;5003649;28;20210;-86
2022/10/10 12:18:28;;;;;;;2.73;1.40;;;14.90;99.90;;;;;;5001666;28;20590;-86
2022/10/10 12:21:10;;;;;;;1.50;1.10;;;14.80;99.90;;;;;;5035387;28;20665;-86
2022/10/10 12:23:36;;;;;;;0.87;0.87;;;14.60;99.90;;;;;;5003243;28;20583;-86
2022/10/10 12:26:03;;;;;;;0.57;0.50;;;14.50;99.90;;;;;;5002772;28;20227;-85
2022/10/10 12:28:35;;;;;;;0.77;0.77;;;14.00;99.90;;;;;;5004850;28;20934;-85
2022/10/10 12:31:04;;;;;;;0.40;0.40;;;13.50;99.90;;;;;;5002753;28;20215;-85
2022/10/10 12:33:33;;;;;;;0.20;0.20;;;13.50;99.90;;;;;;5004032;28;20227;-85
2022/10/10 12:36:25;;;;;;;1.07;1.07;;;13.40;99.90;;;;;;5011076;28;20285;-86
2022/10/10 12:39:00;;;;;;;2.63;1.03;;;13.50;99.90;;;;;;4993740;28;20735;-86
2022/10/10 12:41:41;;;;;;;0.10;0.10;;;13.40;99.90;;;;;;5004144;28;20218;-87
2022/10/10 12:44:34;;;;;;;0.60;0.37;;;13.40;99.90;;;;;;5011508;28;20191;-91
2022/10/10 12:47:14;;;;;;;0.63;0.30;;;13.20;99.90;;;;;;5020681;28;20179;-86
2022/10/10 12:49:56;;;;;;;0.57;0.23;;;13.00;99.90;;;;;;5009715;28;20179;-86
2022/10/10 12:52:49;;;;;;;0.83;0.73;;;13.00;99.90;;;;;;5003699;28;20692;-84
2022/10/10 12:55:40;;;;;;;0.60;0.40;;;13.00;99.90;;;;;;5003987;28;20573;-83
2022/10/10 12:58:29;;;;;;;1.50;0.77;;;12.80;99.90;;;;;;5003927;28;20689;-85
2022/10/10 13:01:00;;;;;;;5.70;0.93;;;12.70;99.90;;;;;;5004918;28;20227;-84
2022/10/10 13:03:41;;;;;;;2.17;0.90;;;12.70;99.90;;;;;;5004470;28;20672;-88
2022/10/10 13:06:30;;;;;;;0.77;0.37;;;12.80;99.90;;;;;;5012252;28;20235;-84
2022/10/10 13:08:57;;;;;;;7.03;0.90;;;12.80;99.90;;;;;;5004552;28;20261;-85
2022/10/10 13:11:23;;;;;;;2.40;0.47;;;12.90;99.90;;;;;;5019344;28;20303;-87
2022/10/10 13:13:51;;;;;;;3.00;1.00;;;12.90;99.90;;;;;;5020282;28;20608;-87
2022/10/10 13:16:24;;;;;;;0.93;0.80;;;12.90;99.90;;;;;;5004338;28;20659;-85